sensor_id;sensor_type;location;lat;lon;timestamp;P1;durP1;ratioP1;P2;durP2;ratioP2
1446;SDS011;717;51.522;7.266;2023-03-03T00:00:34;55.67;;;28.70;;
1446;SDS011;717;51.522;7.266;2023-03-03T00:03:04;59.23;;;29.87;;
1446;SDS011;717;51.522;7.266;2023-03-03T00:05:34;60.20;;;31.73;;
1446;SDS011;717;51.522;7.266;2023-03-03T00:08:04;55.00;;;27.60;;
1446;SDS011;717;51.522;7.266;2023-03-03T00:10:32;54.60;;;27.63;;
1446;SDS011;717;51.522;7.266;2023-03-03T00:13:01;52.97;;;26.80;;
1446;SDS011;717;51.522;7.266;2023-03-03T00:15:32;54.40;;;27.07;;
1446;SDS011;717;51.522;7.266;2023-03-03T00:18:05;58.63;;;29.43;;
1446;SDS011;717;51.522;7.266;2023-03-03T00:20:47;48.17;;;25.77;;
1446;SDS011;717;51.522;7.266;2023-03-03T00:23:19;48.67;;;25.93;;
1446;SDS011;717;51.522;7.266;2023-03-03T00:25:51;46.93;;;24.30;;
1446;SDS011;717;51.522;7.266;2023-03-03T00:28:22;48.03;;;24.20;;
1446;SDS011;717;51.522;7.266;2023-03-03T00:30:55;48.97;;;25.07;;
1446;SDS011;717;51.522;7.266;2023-03-03T00:33:27;52.50;;;25.87;;
1446;SDS011;717;51.522;7.266;2023-03-03T00:38:52;60.03;;;26.67;;
1446;SDS011;717;51.522;7.266;2023-03-03T00:41:22;49.67;;;24.67;;
1446;SDS011;717;51.522;7.266;2023-03-03T00:43:53;51.63;;;26.20;;
1446;SDS011;717;51.522;7.266;2023-03-03T00:46:24;55.33;;;27.70;;
1446;SDS011;717;51.522;7.266;2023-03-03T00:48:53;54.10;;;24.67;;
1446;SDS011;717;51.522;7.266;2023-03-03T00:51:25;56.73;;;25.17;;
1446;SDS011;717;51.522;7.266;2023-03-03T00:53:56;57.00;;;26.57;;
1446;SDS011;717;51.522;7.266;2023-03-03T00:56:25;58.77;;;26.53;;
1446;SDS011;717;51.522;7.266;2023-03-03T00:58:54;59.23;;;27.60;;
1446;SDS011;717;51.522;7.266;2023-03-03T01:01:25;61.97;;;28.80;;
1446;SDS011;717;51.522;7.266;2023-03-03T01:03:54;53.17;;;27.33;;
1446;SDS011;717;51.522;7.266;2023-03-03T01:06:22;59.80;;;26.57;;
1446;SDS011;717;51.522;7.266;2023-03-03T01:08:52;55.20;;;27.37;;
1446;SDS011;717;51.522;7.266;2023-03-03T01:11:22;59.07;;;27.57;;
1446;SDS011;717;51.522;7.266;2023-03-03T01:13:52;61.50;;;28.57;;
1446;SDS011;717;51.522;7.266;2023-03-03T01:16:21;56.80;;;27.93;;
1446;SDS011;717;51.522;7.266;2023-03-03T01:18:52;59.43;;;29.00;;
1446;SDS011;717;51.522;7.266;2023-03-03T01:21:21;54.03;;;26.70;;
1446;SDS011;717;51.522;7.266;2023-03-03T01:23:49;57.93;;;27.33;;
1446;SDS011;717;51.522;7.266;2023-03-03T01:26:18;58.87;;;27.77;;
1446;SDS011;717;51.522;7.266;2023-03-03T01:28:46;51.97;;;26.17;;
1446;SDS011;717;51.522;7.266;2023-03-03T01:31:15;50.00;;;24.37;;
1446;SDS011;717;51.522;7.266;2023-03-03T01:33:44;53.77;;;26.43;;
1446;SDS011;717;51.522;7.266;2023-03-03T01:36:15;46.03;;;23.83;;
1446;SDS011;717;51.522;7.266;2023-03-03T01:38:49;45.53;;;21.40;;
1446;SDS011;717;51.522;7.266;2023-03-03T01:41:18;47.20;;;22.90;;
1446;SDS011;717;51.522;7.266;2023-03-03T01:43:47;52.40;;;24.30;;
1446;SDS011;717;51.522;7.266;2023-03-03T01:46:34;53.47;;;24.20;;
1446;SDS011;717;51.522;7.266;2023-03-03T01:49:10;42.17;;;20.90;;
1446;SDS011;717;51.522;7.266;2023-03-03T01:51:45;36.00;;;18.33;;
1446;SDS011;717;51.522;7.266;2023-03-03T01:54:18;37.20;;;18.27;;
1446;SDS011;717;51.522;7.266;2023-03-03T01:56:51;34.17;;;17.33;;
1446;SDS011;717;51.522;7.266;2023-03-03T01:59:25;39.50;;;19.63;;
1446;SDS011;717;51.522;7.266;2023-03-03T02:01:56;42.33;;;21.87;;
1446;SDS011;717;51.522;7.266;2023-03-03T02:04:24;45.27;;;21.87;;
1446;SDS011;717;51.522;7.266;2023-03-03T02:06:57;41.13;;;20.50;;
1446;SDS011;717;51.522;7.266;2023-03-03T02:09:31;44.20;;;21.53;;
1446;SDS011;717;51.522;7.266;2023-03-03T02:12:08;49.27;;;24.73;;
1446;SDS011;717;51.522;7.266;2023-03-03T02:14:39;47.67;;;23.30;;
1446;SDS011;717;51.522;7.266;2023-03-03T02:17:08;45.40;;;22.27;;
1446;SDS011;717;51.522;7.266;2023-03-03T02:19:39;46.70;;;22.27;;
1446;SDS011;717;51.522;7.266;2023-03-03T02:22:16;54.10;;;24.67;;
1446;SDS011;717;51.522;7.266;2023-03-03T02:24:50;56.33;;;25.50;;
1446;SDS011;717;51.522;7.266;2023-03-03T02:27:26;50.93;;;25.03;;
1446;SDS011;717;51.522;7.266;2023-03-03T02:30:06;54.10;;;24.57;;
1446;SDS011;717;51.522;7.266;2023-03-03T02:32:36;57.60;;;26.57;;
1446;SDS011;717;51.522;7.266;2023-03-03T02:35:19;54.70;;;26.07;;
1446;SDS011;717;51.522;7.266;2023-03-03T02:37:55;58.17;;;27.40;;
1446;SDS011;717;51.522;7.266;2023-03-03T02:40:30;60.90;;;27.40;;
1446;SDS011;717;51.522;7.266;2023-03-03T02:43:06;60.00;;;26.27;;
1446;SDS011;717;51.522;7.266;2023-03-03T02:45:40;58.67;;;26.83;;
1446;SDS011;717;51.522;7.266;2023-03-03T02:48:10;56.40;;;24.77;;
1446;SDS011;717;51.522;7.266;2023-03-03T02:50:38;53.00;;;24.03;;
1446;SDS011;717;51.522;7.266;2023-03-03T02:53:07;43.00;;;19.77;;
1446;SDS011;717;51.522;7.266;2023-03-03T02:55:35;40.10;;;19.13;;
1446;SDS011;717;51.522;7.266;2023-03-03T02:58:07;35.43;;;18.03;;
1446;SDS011;717;51.522;7.266;2023-03-03T03:00:35;34.33;;;16.53;;
1446;SDS011;717;51.522;7.266;2023-03-03T03:03:04;34.73;;;17.27;;
1446;SDS011;717;51.522;7.266;2023-03-03T03:05:32;35.97;;;17.10;;
1446;SDS011;717;51.522;7.266;2023-03-03T03:08:01;29.20;;;15.33;;
1446;SDS011;717;51.522;7.266;2023-03-03T03:10:29;33.83;;;17.23;;
1446;SDS011;717;51.522;7.266;2023-03-03T03:12:58;32.57;;;16.40;;
1446;SDS011;717;51.522;7.266;2023-03-03T03:15:29;32.77;;;15.83;;
1446;SDS011;717;51.522;7.266;2023-03-03T03:17:57;32.73;;;15.93;;
1446;SDS011;717;51.522;7.266;2023-03-03T03:20:26;31.00;;;15.47;;
1446;SDS011;717;51.522;7.266;2023-03-03T03:22:54;29.97;;;15.33;;
1446;SDS011;717;51.522;7.266;2023-03-03T03:25:23;35.40;;;17.10;;
1446;SDS011;717;51.522;7.266;2023-03-03T03:27:52;36.70;;;16.53;;
1446;SDS011;717;51.522;7.266;2023-03-03T03:30:20;30.73;;;14.77;;
1446;SDS011;717;51.522;7.266;2023-03-03T03:32:51;34.13;;;16.30;;
1446;SDS011;717;51.522;7.266;2023-03-03T03:35:20;29.27;;;14.50;;
1446;SDS011;717;51.522;7.266;2023-03-03T03:37:48;30.80;;;14.40;;
1446;SDS011;717;51.522;7.266;2023-03-03T03:40:17;36.17;;;16.23;;
1446;SDS011;717;51.522;7.266;2023-03-03T03:42:45;34.87;;;15.30;;
1446;SDS011;717;51.522;7.266;2023-03-03T03:45:14;33.87;;;14.53;;
1446;SDS011;717;51.522;7.266;2023-03-03T03:47:43;30.17;;;15.40;;
1446;SDS011;717;51.522;7.266;2023-03-03T03:50:14;34.93;;;15.87;;
1446;SDS011;717;51.522;7.266;2023-03-03T03:52:42;29.57;;;15.63;;
1446;SDS011;717;51.522;7.266;2023-03-03T03:55:11;31.40;;;16.13;;
1446;SDS011;717;51.522;7.266;2023-03-03T03:57:40;31.43;;;15.47;;
1446;SDS011;717;51.522;7.266;2023-03-03T04:00:09;30.83;;;15.37;;
1446;SDS011;717;51.522;7.266;2023-03-03T04:02:39;31.23;;;14.37;;
1446;SDS011;717;51.522;7.266;2023-03-03T04:05:08;24.50;;;13.37;;
1446;SDS011;717;51.522;7.266;2023-03-03T04:07:39;21.97;;;11.27;;
1446;SDS011;717;51.522;7.266;2023-03-03T04:10:08;21.67;;;11.33;;
1446;SDS011;717;51.522;7.266;2023-03-03T04:12:37;20.97;;;11.13;;
1446;SDS011;717;51.522;7.266;2023-03-03T04:15:06;18.57;;;10.40;;
1446;SDS011;717;51.522;7.266;2023-03-03T04:17:36;17.53;;;10.17;;
1446;SDS011;717;51.522;7.266;2023-03-03T04:20:06;15.57;;;9.30;;
1446;SDS011;717;51.522;7.266;2023-03-03T04:22:41;19.23;;;10.57;;
1446;SDS011;717;51.522;7.266;2023-03-03T04:25:10;18.70;;;10.40;;
1446;SDS011;717;51.522;7.266;2023-03-03T04:27:41;17.57;;;10.30;;
1446;SDS011;717;51.522;7.266;2023-03-03T04:30:11;15.30;;;8.40;;
1446;SDS011;717;51.522;7.266;2023-03-03T04:32:41;16.73;;;9.50;;
1446;SDS011;717;51.522;7.266;2023-03-03T04:35:09;14.83;;;8.73;;
1446;SDS011;717;51.522;7.266;2023-03-03T04:37:41;13.57;;;8.87;;
1446;SDS011;717;51.522;7.266;2023-03-03T04:40:09;13.93;;;8.60;;
1446;SDS011;717;51.522;7.266;2023-03-03T04:42:38;19.10;;;11.20;;
1446;SDS011;717;51.522;7.266;2023-03-03T04:45:07;19.50;;;10.40;;
1446;SDS011;717;51.522;7.266;2023-03-03T04:47:36;21.33;;;10.80;;
1446;SDS011;717;51.522;7.266;2023-03-03T04:50:06;22.87;;;11.73;;
1446;SDS011;717;51.522;7.266;2023-03-03T04:52:35;22.93;;;11.93;;
1446;SDS011;717;51.522;7.266;2023-03-03T04:55:07;24.57;;;12.80;;
1446;SDS011;717;51.522;7.266;2023-03-03T04:57:38;27.30;;;12.70;;
1446;SDS011;717;51.522;7.266;2023-03-03T05:00:07;24.97;;;13.50;;
1446;SDS011;717;51.522;7.266;2023-03-03T05:02:37;26.20;;;12.80;;
1446;SDS011;717;51.522;7.266;2023-03-03T05:05:06;24.40;;;12.17;;
1446;SDS011;717;51.522;7.266;2023-03-03T05:07:38;23.77;;;12.93;;
1446;SDS011;717;51.522;7.266;2023-03-03T05:10:10;23.70;;;12.20;;
1446;SDS011;717;51.522;7.266;2023-03-03T05:12:39;21.83;;;11.60;;
1446;SDS011;717;51.522;7.266;2023-03-03T05:15:08;24.00;;;12.17;;
1446;SDS011;717;51.522;7.266;2023-03-03T05:17:37;22.37;;;11.73;;
1446;SDS011;717;51.522;7.266;2023-03-03T05:20:07;24.10;;;11.87;;
1446;SDS011;717;51.522;7.266;2023-03-03T05:22:37;24.43;;;11.83;;
1446;SDS011;717;51.522;7.266;2023-03-03T05:25:06;26.43;;;13.97;;
1446;SDS011;717;51.522;7.266;2023-03-03T05:27:37;28.10;;;14.23;;
1446;SDS011;717;51.522;7.266;2023-03-03T05:30:07;27.03;;;14.23;;
1446;SDS011;717;51.522;7.266;2023-03-03T05:32:37;33.57;;;14.97;;
1446;SDS011;717;51.522;7.266;2023-03-03T05:35:05;32.83;;;16.20;;
1446;SDS011;717;51.522;7.266;2023-03-03T05:37:34;30.67;;;14.87;;
1446;SDS011;717;51.522;7.266;2023-03-03T05:40:04;30.23;;;14.60;;
1446;SDS011;717;51.522;7.266;2023-03-03T05:42:36;29.83;;;15.03;;
1446;SDS011;717;51.522;7.266;2023-03-03T05:45:05;24.73;;;13.63;;
1446;SDS011;717;51.522;7.266;2023-03-03T05:47:35;29.57;;;14.87;;
1446;SDS011;717;51.522;7.266;2023-03-03T05:50:04;28.07;;;14.07;;
1446;SDS011;717;51.522;7.266;2023-03-03T05:52:33;37.03;;;17.67;;
1446;SDS011;717;51.522;7.266;2023-03-03T05:55:01;38.33;;;16.63;;
1446;SDS011;717;51.522;7.266;2023-03-03T05:57:30;37.73;;;16.83;;
1446;SDS011;717;51.522;7.266;2023-03-03T06:00:02;31.80;;;15.60;;
1446;SDS011;717;51.522;7.266;2023-03-03T06:02:32;32.77;;;15.40;;
1446;SDS011;717;51.522;7.266;2023-03-03T06:05:01;40.43;;;17.47;;
1446;SDS011;717;51.522;7.266;2023-03-03T06:07:30;42.33;;;18.23;;
1446;SDS011;717;51.522;7.266;2023-03-03T06:09:58;35.60;;;16.30;;
1446;SDS011;717;51.522;7.266;2023-03-03T06:12:27;37.20;;;17.13;;
1446;SDS011;717;51.522;7.266;2023-03-03T06:14:56;37.40;;;17.17;;
1446;SDS011;717;51.522;7.266;2023-03-03T06:17:27;35.93;;;16.67;;
1446;SDS011;717;51.522;7.266;2023-03-03T06:19:55;31.13;;;15.93;;
1446;SDS011;717;51.522;7.266;2023-03-03T06:22:24;38.37;;;16.83;;
1446;SDS011;717;51.522;7.266;2023-03-03T06:24:53;37.77;;;16.27;;
1446;SDS011;717;51.522;7.266;2023-03-03T06:27:21;32.97;;;15.70;;
1446;SDS011;717;51.522;7.266;2023-03-03T06:29:50;38.13;;;16.33;;
1446;SDS011;717;51.522;7.266;2023-03-03T06:32:18;38.50;;;16.57;;
1446;SDS011;717;51.522;7.266;2023-03-03T06:34:49;41.80;;;17.63;;
1446;SDS011;717;51.522;7.266;2023-03-03T06:37:18;45.10;;;18.23;;
1446;SDS011;717;51.522;7.266;2023-03-03T06:39:46;42.83;;;18.90;;
1446;SDS011;717;51.522;7.266;2023-03-03T06:42:16;42.37;;;18.80;;
1446;SDS011;717;51.522;7.266;2023-03-03T06:44:45;44.43;;;17.83;;
1446;SDS011;717;51.522;7.266;2023-03-03T06:47:14;41.43;;;17.80;;
1446;SDS011;717;51.522;7.266;2023-03-03T06:49:42;39.13;;;17.63;;
1446;SDS011;717;51.522;7.266;2023-03-03T06:52:13;39.63;;;18.10;;
1446;SDS011;717;51.522;7.266;2023-03-03T06:54:45;35.63;;;17.00;;
1446;SDS011;717;51.522;7.266;2023-03-03T06:57:15;33.67;;;16.40;;
1446;SDS011;717;51.522;7.266;2023-03-03T06:59:47;40.67;;;17.87;;
1446;SDS011;717;51.522;7.266;2023-03-03T07:02:19;36.93;;;17.47;;
1446;SDS011;717;51.522;7.266;2023-03-03T07:04:48;37.43;;;17.30;;
1446;SDS011;717;51.522;7.266;2023-03-03T07:07:21;36.90;;;17.40;;
1446;SDS011;717;51.522;7.266;2023-03-03T07:09:52;33.30;;;16.43;;
1446;SDS011;717;51.522;7.266;2023-03-03T07:12:22;37.93;;;17.43;;
1446;SDS011;717;51.522;7.266;2023-03-03T07:14:54;39.17;;;17.43;;
1446;SDS011;717;51.522;7.266;2023-03-03T07:17:29;41.27;;;18.57;;
1446;SDS011;717;51.522;7.266;2023-03-03T07:19:57;41.73;;;18.10;;
1446;SDS011;717;51.522;7.266;2023-03-03T07:22:31;35.40;;;17.10;;
1446;SDS011;717;51.522;7.266;2023-03-03T07:24:59;38.40;;;16.73;;
1446;SDS011;717;51.522;7.266;2023-03-03T07:27:33;44.57;;;18.27;;
1446;SDS011;717;51.522;7.266;2023-03-03T07:30:11;44.80;;;19.80;;
1446;SDS011;717;51.522;7.266;2023-03-03T07:32:48;40.43;;;17.27;;
1446;SDS011;717;51.522;7.266;2023-03-03T07:35:25;35.67;;;15.87;;
1446;SDS011;717;51.522;7.266;2023-03-03T07:38:04;42.70;;;17.00;;
1446;SDS011;717;51.522;7.266;2023-03-03T07:40:57;35.30;;;16.67;;
1446;SDS011;717;51.522;7.266;2023-03-03T07:43:32;36.07;;;16.33;;
1446;SDS011;717;51.522;7.266;2023-03-03T07:46:13;34.60;;;15.87;;
1446;SDS011;717;51.522;7.266;2023-03-03T07:48:48;36.90;;;16.63;;
1446;SDS011;717;51.522;7.266;2023-03-03T07:51:19;37.60;;;16.50;;
1446;SDS011;717;51.522;7.266;2023-03-03T07:53:52;33.10;;;14.20;;
1446;SDS011;717;51.522;7.266;2023-03-03T07:56:25;32.43;;;15.27;;
1446;SDS011;717;51.522;7.266;2023-03-03T07:58:56;30.83;;;14.87;;
1446;SDS011;717;51.522;7.266;2023-03-03T08:01:36;39.77;;;17.27;;
1446;SDS011;717;51.522;7.266;2023-03-03T08:04:08;35.10;;;15.77;;
1446;SDS011;717;51.522;7.266;2023-03-03T08:06:52;35.53;;;15.97;;
1446;SDS011;717;51.522;7.266;2023-03-03T08:12:26;36.80;;;14.93;;
1446;SDS011;717;51.522;7.266;2023-03-03T08:15:17;37.63;;;15.93;;
1446;SDS011;717;51.522;7.266;2023-03-03T08:17:48;34.50;;;15.13;;
1446;SDS011;717;51.522;7.266;2023-03-03T08:23:17;37.50;;;16.30;;
1446;SDS011;717;51.522;7.266;2023-03-03T08:25:50;35.47;;;15.13;;
1446;SDS011;717;51.522;7.266;2023-03-03T08:28:19;39.47;;;16.83;;
1446;SDS011;717;51.522;7.266;2023-03-03T08:30:48;36.03;;;16.30;;
1446;SDS011;717;51.522;7.266;2023-03-03T08:33:17;41.20;;;16.47;;
1446;SDS011;717;51.522;7.266;2023-03-03T08:35:46;38.03;;;16.63;;
1446;SDS011;717;51.522;7.266;2023-03-03T08:38:16;35.23;;;16.23;;
1446;SDS011;717;51.522;7.266;2023-03-03T08:40:46;36.00;;;14.77;;
1446;SDS011;717;51.522;7.266;2023-03-03T08:43:18;32.97;;;14.67;;
1446;SDS011;717;51.522;7.266;2023-03-03T08:45:49;29.17;;;13.17;;
1446;SDS011;717;51.522;7.266;2023-03-03T08:48:19;31.13;;;15.40;;
1446;SDS011;717;51.522;7.266;2023-03-03T08:50:48;37.17;;;13.90;;
1446;SDS011;717;51.522;7.266;2023-03-03T08:53:17;29.10;;;12.33;;
1446;SDS011;717;51.522;7.266;2023-03-03T08:55:47;26.27;;;12.47;;
1446;SDS011;717;51.522;7.266;2023-03-03T08:58:18;29.73;;;13.10;;
1446;SDS011;717;51.522;7.266;2023-03-03T09:00:48;22.10;;;11.37;;
1446;SDS011;717;51.522;7.266;2023-03-03T09:03:16;25.63;;;12.00;;
1446;SDS011;717;51.522;7.266;2023-03-03T09:05:45;24.17;;;11.20;;
1446;SDS011;717;51.522;7.266;2023-03-03T09:08:13;29.63;;;12.97;;
1446;SDS011;717;51.522;7.266;2023-03-03T09:10:42;29.80;;;12.90;;
1446;SDS011;717;51.522;7.266;2023-03-03T09:13:14;29.27;;;12.43;;
1446;SDS011;717;51.522;7.266;2023-03-03T09:15:43;31.13;;;12.03;;
1446;SDS011;717;51.522;7.266;2023-03-03T09:18:14;30.17;;;13.03;;
1446;SDS011;717;51.522;7.266;2023-03-03T09:20:46;31.80;;;11.90;;
1446;SDS011;717;51.522;7.266;2023-03-03T09:23:30;34.33;;;12.53;;
1446;SDS011;717;51.522;7.266;2023-03-03T09:26:14;31.93;;;13.03;;
1446;SDS011;717;51.522;7.266;2023-03-03T09:28:54;31.50;;;13.00;;
1446;SDS011;717;51.522;7.266;2023-03-03T09:31:35;30.40;;;13.00;;
1446;SDS011;717;51.522;7.266;2023-03-03T09:34:11;30.90;;;12.30;;
1446;SDS011;717;51.522;7.266;2023-03-03T09:36:44;30.93;;;12.80;;
1446;SDS011;717;51.522;7.266;2023-03-03T09:39:15;25.40;;;11.23;;
1446;SDS011;717;51.522;7.266;2023-03-03T09:41:49;28.60;;;12.10;;
1446;SDS011;717;51.522;7.266;2023-03-03T09:47:46;26.00;;;11.80;;
1446;SDS011;717;51.522;7.266;2023-03-03T09:50:35;28.90;;;12.80;;
1446;SDS011;717;51.522;7.266;2023-03-03T09:53:27;30.10;;;13.70;;
1446;SDS011;717;51.522;7.266;2023-03-03T09:56:08;30.97;;;13.10;;
1446;SDS011;717;51.522;7.266;2023-03-03T09:58:50;31.53;;;13.37;;
1446;SDS011;717;51.522;7.266;2023-03-03T10:01:35;29.73;;;14.20;;
1446;SDS011;717;51.522;7.266;2023-03-03T10:04:32;26.67;;;12.90;;
1446;SDS011;717;51.522;7.266;2023-03-03T10:07:18;26.37;;;11.80;;
1446;SDS011;717;51.522;7.266;2023-03-03T10:10:01;27.00;;;12.33;;
1446;SDS011;717;51.522;7.266;2023-03-03T10:12:44;22.03;;;10.37;;
1446;SDS011;717;51.522;7.266;2023-03-03T10:15:26;27.83;;;12.43;;
1446;SDS011;717;51.522;7.266;2023-03-03T10:18:05;27.07;;;11.40;;
1446;SDS011;717;51.522;7.266;2023-03-03T10:20:51;26.20;;;12.50;;
1446;SDS011;717;51.522;7.266;2023-03-03T10:23:31;29.97;;;12.87;;
1446;SDS011;717;51.522;7.266;2023-03-03T10:29:23;33.50;;;14.53;;
1446;SDS011;717;51.522;7.266;2023-03-03T10:32:06;36.80;;;13.77;;
1446;SDS011;717;51.522;7.266;2023-03-03T10:37:50;35.87;;;14.03;;
1446;SDS011;717;51.522;7.266;2023-03-03T10:40:31;35.97;;;13.07;;
1446;SDS011;717;51.522;7.266;2023-03-03T10:43:09;34.67;;;14.33;;
1446;SDS011;717;51.522;7.266;2023-03-03T10:48:41;36.83;;;14.40;;
1446;SDS011;717;51.522;7.266;2023-03-03T10:51:34;43.20;;;15.17;;
1446;SDS011;717;51.522;7.266;2023-03-03T10:54:21;40.33;;;14.57;;
1446;SDS011;717;51.522;7.266;2023-03-03T10:56:58;42.07;;;15.43;;
1446;SDS011;717;51.522;7.266;2023-03-03T10:59:40;38.47;;;14.27;;
1446;SDS011;717;51.522;7.266;2023-03-03T11:02:18;39.70;;;15.50;;
1446;SDS011;717;51.522;7.266;2023-03-03T11:04:54;38.33;;;14.77;;
1446;SDS011;717;51.522;7.266;2023-03-03T11:07:34;35.07;;;15.13;;
1446;SDS011;717;51.522;7.266;2023-03-03T11:10:20;32.80;;;14.30;;
1446;SDS011;717;51.522;7.266;2023-03-03T11:13:00;30.03;;;13.33;;
1446;SDS011;717;51.522;7.266;2023-03-03T11:15:44;31.80;;;13.20;;
1446;SDS011;717;51.522;7.266;2023-03-03T11:18:23;34.73;;;13.33;;
1446;SDS011;717;51.522;7.266;2023-03-03T11:21:02;36.97;;;13.63;;
1446;SDS011;717;51.522;7.266;2023-03-03T11:26:35;37.03;;;13.93;;
1446;SDS011;717;51.522;7.266;2023-03-03T11:29:28;36.33;;;14.70;;
1446;SDS011;717;51.522;7.266;2023-03-03T11:32:06;36.17;;;16.77;;
1446;SDS011;717;51.522;7.266;2023-03-03T11:35:01;36.87;;;16.20;;
1446;SDS011;717;51.522;7.266;2023-03-03T11:37:41;37.93;;;16.63;;
1446;SDS011;717;51.522;7.266;2023-03-03T11:40:19;36.33;;;15.27;;
1446;SDS011;717;51.522;7.266;2023-03-03T11:42:59;37.43;;;15.60;;
1446;SDS011;717;51.522;7.266;2023-03-03T11:45:33;35.60;;;15.90;;
1446;SDS011;717;51.522;7.266;2023-03-03T11:48:10;37.73;;;15.23;;
1446;SDS011;717;51.522;7.266;2023-03-03T11:50:45;34.80;;;14.37;;
1446;SDS011;717;51.522;7.266;2023-03-03T11:53:25;32.77;;;13.80;;
1446;SDS011;717;51.522;7.266;2023-03-03T11:56:06;34.40;;;15.53;;
1446;SDS011;717;51.522;7.266;2023-03-03T11:58:49;29.40;;;14.10;;
1446;SDS011;717;51.522;7.266;2023-03-03T12:01:29;32.13;;;13.20;;
1446;SDS011;717;51.522;7.266;2023-03-03T12:04:04;32.80;;;15.13;;
1446;SDS011;717;51.522;7.266;2023-03-03T12:06:39;32.03;;;14.40;;
1446;SDS011;717;51.522;7.266;2023-03-03T12:09:22;31.97;;;14.53;;
1446;SDS011;717;51.522;7.266;2023-03-03T12:12:00;34.43;;;15.83;;
1446;SDS011;717;51.522;7.266;2023-03-03T12:14:38;33.30;;;15.33;;
1446;SDS011;717;51.522;7.266;2023-03-03T12:17:27;34.03;;;16.33;;
1446;SDS011;717;51.522;7.266;2023-03-03T12:20:12;34.83;;;16.33;;
1446;SDS011;717;51.522;7.266;2023-03-03T12:22:47;32.47;;;15.87;;
1446;SDS011;717;51.522;7.266;2023-03-03T12:25:22;32.67;;;15.73;;
1446;SDS011;717;51.522;7.266;2023-03-03T12:28:01;35.40;;;17.30;;
1446;SDS011;717;51.522;7.266;2023-03-03T12:30:39;32.47;;;16.43;;
1446;SDS011;717;51.522;7.266;2023-03-03T12:33:26;30.87;;;14.70;;
1446;SDS011;717;51.522;7.266;2023-03-03T12:36:09;29.77;;;14.30;;
1446;SDS011;717;51.522;7.266;2023-03-03T12:38:47;29.10;;;14.60;;
1446;SDS011;717;51.522;7.266;2023-03-03T12:41:25;28.23;;;14.00;;
1446;SDS011;717;51.522;7.266;2023-03-03T12:43:58;33.53;;;14.80;;
1446;SDS011;717;51.522;7.266;2023-03-03T12:46:38;26.30;;;13.50;;
1446;SDS011;717;51.522;7.266;2023-03-03T12:49:11;26.23;;;12.57;;
1446;SDS011;717;51.522;7.266;2023-03-03T12:51:46;28.93;;;13.40;;
1446;SDS011;717;51.522;7.266;2023-03-03T12:54:38;32.17;;;14.57;;
1446;SDS011;717;51.522;7.266;2023-03-03T12:57:19;27.30;;;13.27;;
1446;SDS011;717;51.522;7.266;2023-03-03T13:00:11;24.73;;;12.53;;
1446;SDS011;717;51.522;7.266;2023-03-03T13:03:04;24.87;;;11.70;;
1446;SDS011;717;51.522;7.266;2023-03-03T13:05:44;24.23;;;11.57;;
1446;SDS011;717;51.522;7.266;2023-03-03T13:08:26;22.77;;;12.27;;
1446;SDS011;717;51.522;7.266;2023-03-03T13:11:05;25.40;;;12.67;;
1446;SDS011;717;51.522;7.266;2023-03-03T13:13:56;24.07;;;12.63;;
1446;SDS011;717;51.522;7.266;2023-03-03T13:16:32;27.67;;;12.53;;
1446;SDS011;717;51.522;7.266;2023-03-03T13:19:08;27.60;;;13.17;;
1446;SDS011;717;51.522;7.266;2023-03-03T13:21:42;28.07;;;13.50;;
1446;SDS011;717;51.522;7.266;2023-03-03T13:24:16;29.43;;;14.97;;
1446;SDS011;717;51.522;7.266;2023-03-03T13:26:51;29.43;;;14.83;;
1446;SDS011;717;51.522;7.266;2023-03-03T13:29:22;34.10;;;17.03;;
1446;SDS011;717;51.522;7.266;2023-03-03T13:31:55;33.43;;;16.97;;
1446;SDS011;717;51.522;7.266;2023-03-03T13:34:33;34.30;;;17.37;;
1446;SDS011;717;51.522;7.266;2023-03-03T13:37:11;31.00;;;15.37;;
1446;SDS011;717;51.522;7.266;2023-03-03T13:39:46;32.30;;;15.97;;
1446;SDS011;717;51.522;7.266;2023-03-03T13:42:23;30.63;;;15.17;;
1446;SDS011;717;51.522;7.266;2023-03-03T13:44:58;30.33;;;15.73;;
1446;SDS011;717;51.522;7.266;2023-03-03T13:47:31;27.07;;;14.70;;
1446;SDS011;717;51.522;7.266;2023-03-03T13:50:09;28.03;;;13.30;;
1446;SDS011;717;51.522;7.266;2023-03-03T13:52:49;26.83;;;13.53;;
1446;SDS011;717;51.522;7.266;2023-03-03T13:55:28;27.70;;;14.67;;
1446;SDS011;717;51.522;7.266;2023-03-03T13:58:04;24.80;;;14.00;;
1446;SDS011;717;51.522;7.266;2023-03-03T14:00:47;27.67;;;13.40;;
1446;SDS011;717;51.522;7.266;2023-03-03T14:03:26;24.73;;;14.07;;
1446;SDS011;717;51.522;7.266;2023-03-03T14:06:22;26.70;;;13.30;;
1446;SDS011;717;51.522;7.266;2023-03-03T14:08:59;17.70;;;9.80;;
1446;SDS011;717;51.522;7.266;2023-03-03T14:11:48;19.37;;;10.03;;
1446;SDS011;717;51.522;7.266;2023-03-03T14:14:31;19.67;;;10.50;;
1446;SDS011;717;51.522;7.266;2023-03-03T14:17:11;22.13;;;11.13;;
1446;SDS011;717;51.522;7.266;2023-03-03T14:19:46;23.13;;;11.33;;
1446;SDS011;717;51.522;7.266;2023-03-03T14:22:21;21.20;;;11.30;;
1446;SDS011;717;51.522;7.266;2023-03-03T14:24:55;22.60;;;10.90;;
1446;SDS011;717;51.522;7.266;2023-03-03T14:27:28;16.83;;;10.23;;
1446;SDS011;717;51.522;7.266;2023-03-03T14:35:47;17.27;;;8.93;;
1446;SDS011;717;51.522;7.266;2023-03-03T14:38:22;18.43;;;9.37;;
1446;SDS011;717;51.522;7.266;2023-03-03T14:41:03;17.40;;;10.00;;
1446;SDS011;717;51.522;7.266;2023-03-03T14:43:40;17.17;;;9.30;;
1446;SDS011;717;51.522;7.266;2023-03-03T14:46:25;17.40;;;8.87;;
1446;SDS011;717;51.522;7.266;2023-03-03T14:49:04;15.60;;;8.97;;
1446;SDS011;717;51.522;7.266;2023-03-03T14:51:39;15.83;;;8.33;;
1446;SDS011;717;51.522;7.266;2023-03-03T14:54:21;17.37;;;8.80;;
1446;SDS011;717;51.522;7.266;2023-03-03T14:56:58;17.10;;;9.93;;
1446;SDS011;717;51.522;7.266;2023-03-03T14:59:29;17.77;;;11.23;;
1446;SDS011;717;51.522;7.266;2023-03-03T15:07:44;17.57;;;9.53;;
1446;SDS011;717;51.522;7.266;2023-03-03T15:10:28;15.55;;;9.32;;
1446;SDS011;717;51.522;7.266;2023-03-03T15:12:58;13.27;;;8.52;;
1446;SDS011;717;51.522;7.266;2023-03-03T15:15:51;15.00;;;8.87;;
1446;SDS011;717;51.522;7.266;2023-03-03T15:18:29;16.63;;;9.33;;
1446;SDS011;717;51.522;7.266;2023-03-03T15:21:01;16.17;;;8.57;;
1446;SDS011;717;51.522;7.266;2023-03-03T15:23:35;15.60;;;8.60;;
1446;SDS011;717;51.522;7.266;2023-03-03T15:26:16;15.47;;;9.27;;
1446;SDS011;717;51.522;7.266;2023-03-03T15:28:53;16.63;;;9.50;;
1446;SDS011;717;51.522;7.266;2023-03-03T15:31:30;12.77;;;8.40;;
1446;SDS011;717;51.522;7.266;2023-03-03T15:34:14;14.30;;;9.40;;
1446;SDS011;717;51.522;7.266;2023-03-03T15:36:52;16.53;;;9.30;;
1446;SDS011;717;51.522;7.266;2023-03-03T15:39:27;15.80;;;9.63;;
1446;SDS011;717;51.522;7.266;2023-03-03T15:42:07;15.97;;;9.70;;
1446;SDS011;717;51.522;7.266;2023-03-03T15:44:45;15.43;;;9.63;;
1446;SDS011;717;51.522;7.266;2023-03-03T15:47:42;15.20;;;9.13;;
1446;SDS011;717;51.522;7.266;2023-03-03T15:50:23;14.93;;;8.97;;
1446;SDS011;717;51.522;7.266;2023-03-03T15:53:02;15.43;;;9.47;;
1446;SDS011;717;51.522;7.266;2023-03-03T15:55:42;15.63;;;9.37;;
1446;SDS011;717;51.522;7.266;2023-03-03T16:01:23;15.27;;;8.97;;
1446;SDS011;717;51.522;7.266;2023-03-03T16:03:55;14.07;;;8.57;;
1446;SDS011;717;51.522;7.266;2023-03-03T16:06:29;15.40;;;8.97;;
1446;SDS011;717;51.522;7.266;2023-03-03T16:09:12;14.18;;;9.05;;
1446;SDS011;717;51.522;7.266;2023-03-03T16:11:51;16.83;;;9.43;;
1446;SDS011;717;51.522;7.266;2023-03-03T16:14:34;15.27;;;9.40;;
1446;SDS011;717;51.522;7.266;2023-03-03T16:17:16;15.53;;;9.03;;
1446;SDS011;717;51.522;7.266;2023-03-03T16:19:52;16.50;;;8.83;;
1446;SDS011;717;51.522;7.266;2023-03-03T16:22:32;19.07;;;9.70;;
1446;SDS011;717;51.522;7.266;2023-03-03T16:25:14;17.70;;;10.67;;